createdAt,value
2017-11-11T00:00:46.820Z,75.10
2017-11-11T00:03:15.173Z,75.20
2017-11-11T00:05:42.787Z,75.10
2017-11-11T00:08:10.379Z,75.20
2017-11-11T00:10:38.021Z,75.20
2017-11-11T00:13:05.610Z,75.20
2017-11-11T00:15:33.222Z,75.60
2017-11-11T00:18:00.837Z,75.80
2017-11-11T00:20:28.430Z,75.30
2017-11-11T00:22:56.046Z,75.20
2017-11-11T00:25:23.640Z,75.10
2017-11-11T00:27:52.026Z,75.40
2017-11-11T00:30:20.373Z,75.40
2017-11-11T00:32:48.858Z,75.10
2017-11-11T00:35:16.478Z,75.10
2017-11-11T00:37:44.070Z,75.10
2017-11-11T00:40:11.697Z,74.90
2017-11-11T00:42:39.287Z,74.90
2017-11-11T00:45:06.887Z,74.90
2017-11-11T00:47:35.267Z,74.80
2017-11-11T00:50:03.631Z,74.70
2017-11-11T00:52:32.014Z,74.90
2017-11-11T00:55:00.366Z,74.80
2017-11-11T00:57:27.964Z,74.80
2017-11-11T00:59:56.338Z,74.90
2017-11-11T01:02:24.698Z,74.40
2017-11-11T01:04:52.331Z,74.40
2017-11-11T01:07:19.922Z,74.50
2017-11-11T01:09:47.518Z,74.50
2017-11-11T01:12:15.139Z,74.90
2017-11-11T01:14:42.750Z,74.50
2017-11-11T01:17:10.374Z,74.70
2017-11-11T01:19:38.730Z,74.90
2017-11-11T01:22:06.339Z,74.80
2017-11-11T01:24:33.958Z,74.80
2017-11-11T01:27:01.556Z,75.10
2017-11-11T01:29:29.169Z,75.00
2017-11-11T01:31:56.761Z,74.90
2017-11-11T01:34:25.118Z,75.50
2017-11-11T01:36:52.749Z,75.30
2017-11-11T01:39:20.334Z,75.30
2017-11-11T01:41:47.964Z,75.00
2017-11-11T01:44:15.563Z,74.80
2017-11-11T01:46:43.162Z,74.60
2017-11-11T01:49:10.778Z,74.70
2017-11-11T01:51:38.387Z,75.70
2017-11-11T01:54:06.015Z,74.70
2017-11-11T01:56:34.381Z,74.90
2017-11-11T01:59:03.528Z,74.90
2017-11-11T02:01:31.137Z,74.70
2017-11-11T02:03:58.758Z,75.00
2017-11-11T02:06:26.378Z,75.00
2017-11-11T02:08:54.739Z,75.10
2017-11-11T02:11:22.377Z,75.00
2017-11-11T02:13:49.977Z,75.00
2017-11-11T02:16:18.381Z,75.30
2017-11-11T02:18:46.019Z,75.30
2017-11-11T02:21:14.417Z,75.20
2017-11-11T02:23:42.020Z,75.10
2017-11-11T02:26:09.654Z,75.10
2017-11-11T02:28:37.282Z,74.90
2017-11-11T02:31:05.712Z,74.80
2017-11-11T02:33:33.328Z,74.80
2017-11-11T02:36:00.991Z,74.60
2017-11-11T02:38:29.370Z,74.80
2017-11-11T02:40:57.753Z,75.60
2017-11-11T02:43:26.167Z,74.90
2017-11-11T02:45:53.775Z,75.00
2017-11-11T02:48:22.146Z,74.90
2017-11-11T02:50:49.881Z,74.70
2017-11-11T02:53:17.477Z,74.90
2017-11-11T02:55:46.015Z,75.20
2017-11-11T02:58:13.607Z,75.10
2017-11-11T03:00:41.220Z,75.00
2017-11-11T03:03:08.850Z,75.00
2017-11-11T03:05:37.227Z,75.40
2017-11-11T03:08:05.586Z,75.40
2017-11-11T03:10:33.982Z,75.40
2017-11-11T03:13:02.359Z,75.50
2017-11-11T03:15:30.730Z,75.30
2017-11-11T03:17:59.126Z,75.20
2017-11-11T03:20:27.494Z,75.40
2017-11-11T03:22:55.876Z,75.40
2017-11-11T03:25:24.366Z,75.40
2017-11-11T03:27:52.721Z,75.50
2017-11-11T03:30:20.322Z,75.40
2017-11-11T03:32:48.235Z,75.40
2017-11-11T03:35:15.839Z,75.20
2017-11-11T03:37:43.446Z,75.60
2017-11-11T03:40:11.071Z,75.50
2017-11-11T03:42:38.657Z,75.30
2017-11-11T03:45:06.246Z,75.30
2017-11-11T03:47:33.878Z,75.40
2017-11-11T03:50:01.465Z,75.30
2017-11-11T03:52:29.073Z,75.10
2017-11-11T03:54:56.694Z,75.00
2017-11-11T03:57:24.299Z,75.10
2017-11-11T03:59:51.914Z,75.20
2017-11-11T04:02:19.509Z,75.20
2017-11-11T04:04:47.096Z,75.40
2017-11-11T04:07:14.718Z,75.10
2017-11-11T04:09:43.070Z,74.90
2017-11-11T04:12:10.690Z,74.90
2017-11-11T04:14:38.557Z,75.50
2017-11-11T04:17:06.200Z,75.30
2017-11-11T04:19:33.787Z,75.40
2017-11-11T04:22:01.411Z,75.40
2017-11-11T04:24:28.998Z,75.20
2017-11-11T04:26:56.621Z,76.30
2017-11-11T04:29:24.979Z,75.80
2017-11-11T04:31:52.619Z,75.60
2017-11-11T04:34:20.219Z,75.60
2017-11-11T04:36:48.585Z,75.20
2017-11-11T04:39:16.204Z,75.10
2017-11-11T04:41:43.785Z,75.10
2017-11-11T04:44:11.418Z,75.50
2017-11-11T04:46:39.028Z,75.40
2017-11-11T04:49:06.649Z,75.40
2017-11-11T04:51:34.271Z,75.40
2017-11-11T04:54:02.630Z,75.50
2017-11-11T04:56:30.251Z,75.40
2017-11-11T04:58:58.015Z,75.80
2017-11-11T05:01:25.614Z,75.50
2017-11-11T05:03:53.239Z,75.70
2017-11-11T05:06:20.835Z,76.20
2017-11-11T05:08:48.474Z,75.40
2017-11-11T05:11:16.073Z,75.30
2017-11-11T05:13:44.433Z,75.20
2017-11-11T05:16:12.065Z,75.10
2017-11-11T05:18:39.664Z,75.40
2017-11-11T05:21:08.056Z,75.70
2017-11-11T05:23:36.418Z,75.60
2017-11-11T05:26:04.011Z,75.40
2017-11-11T05:28:31.644Z,75.50
2017-11-11T05:31:00.016Z,75.20
2017-11-11T05:33:27.648Z,75.10
2017-11-11T05:35:55.249Z,75.50
2017-11-11T05:38:23.606Z,75.60
2017-11-11T05:40:51.234Z,75.60
2017-11-11T05:43:18.827Z,75.70
2017-11-11T05:45:46.457Z,75.20
2017-11-11T05:48:14.079Z,75.20
2017-11-11T05:50:42.432Z,75.20
2017-11-11T05:53:10.057Z,75.10
2017-11-11T05:55:37.659Z,75.30
2017-11-11T05:58:06.026Z,75.50
2017-11-11T06:00:33.657Z,75.40
2017-11-11T06:03:01.251Z,75.50
2017-11-11T06:05:28.851Z,75.60
2017-11-11T06:07:56.483Z,75.40
2017-11-11T06:10:24.841Z,75.50
2017-11-11T06:12:53.198Z,75.50
2017-11-11T06:15:20.810Z,75.40
2017-11-11T06:17:49.205Z,75.50
2017-11-11T06:20:16.801Z,75.40
2017-11-11T06:22:44.390Z,75.20
2017-11-11T06:25:12.015Z,75.40
2017-11-11T06:27:39.610Z,75.20
2017-11-11T06:30:08.740Z,75.30
2017-11-11T06:32:36.333Z,75.20
2017-11-11T06:35:03.931Z,75.10
2017-11-11T06:37:32.318Z,75.70
2017-11-11T06:40:00.683Z,75.70
2017-11-11T06:42:28.273Z,75.70
2017-11-11T06:44:55.897Z,75.60
2017-11-11T06:47:23.497Z,75.60
2017-11-11T06:49:51.090Z,75.80
2017-11-11T06:52:18.724Z,75.70
2017-11-11T06:54:46.313Z,75.70
2017-11-11T06:57:13.927Z,75.60
2017-11-11T06:59:42.314Z,76.00
2017-11-11T07:02:10.718Z,75.80
2017-11-11T07:04:38.305Z,75.80
2017-11-11T07:07:05.934Z,75.80
2017-11-11T07:09:33.538Z,76.10
2017-11-11T07:12:01.137Z,75.80
2017-11-11T07:14:28.761Z,75.80
2017-11-11T07:16:56.354Z,75.90
2017-11-11T07:19:24.717Z,75.80
2017-11-11T07:21:53.111Z,76.00
2017-11-11T07:24:21.468Z,76.10
2017-11-11T07:26:49.068Z,76.00
2017-11-11T07:29:16.691Z,75.40
2017-11-11T07:31:45.055Z,76.80
2017-11-11T07:34:14.172Z,76.00
2017-11-11T07:36:42.570Z,76.00
2017-11-11T07:39:10.166Z,75.80
2017-11-11T07:41:37.752Z,76.00
2017-11-11T07:44:05.378Z,76.10
2017-11-11T07:46:32.972Z,76.10
2017-11-11T07:49:01.361Z,76.20
2017-11-11T07:51:28.961Z,76.20
2017-11-11T07:53:56.587Z,76.20
2017-11-11T07:56:24.947Z,76.30
2017-11-11T07:58:53.302Z,76.30
2017-11-11T08:01:20.930Z,76.20
2017-11-11T08:03:48.529Z,76.40
2017-11-11T08:06:16.126Z,76.40
2017-11-11T08:08:43.748Z,76.40
2017-11-11T08:11:11.346Z,76.60
2017-11-11T08:13:38.975Z,76.60
2017-11-11T08:16:06.588Z,76.60
2017-11-11T08:18:34.227Z,76.60
2017-11-11T08:21:02.591Z,76.20
2017-11-11T08:23:30.946Z,76.60
2017-11-11T08:25:58.566Z,76.40
2017-11-11T08:28:26.166Z,76.50
2017-11-11T08:30:53.789Z,76.60
2017-11-11T08:33:22.156Z,76.60
2017-11-11T08:35:49.778Z,76.70
2017-11-11T08:38:17.370Z,76.70
2017-11-11T08:40:45.760Z,76.80
2017-11-11T08:43:14.127Z,76.80
2017-11-11T08:45:42.532Z,76.80
2017-11-11T08:48:10.158Z,77.60
2017-11-11T08:50:37.789Z,77.10
2017-11-11T08:53:05.378Z,77.30
2017-11-11T08:55:32.971Z,77.30
2017-11-11T08:58:00.626Z,77.40
2017-11-11T09:00:28.974Z,77.60
2017-11-11T09:02:56.575Z,77.60
2017-11-11T09:05:24.961Z,77.40
2017-11-11T09:07:52.560Z,77.70
2017-11-11T09:10:20.181Z,77.60
2017-11-11T09:12:47.787Z,77.70
2017-11-11T09:15:16.961Z,77.70
2017-11-11T09:17:44.548Z,77.70
2017-11-11T09:20:12.165Z,77.90
2017-11-11T09:22:39.972Z,77.90
2017-11-11T09:25:07.571Z,77.90
2017-11-11T09:27:35.958Z,77.80
2017-11-11T09:30:03.563Z,77.80
2017-11-11T09:32:31.185Z,78.00
2017-11-11T09:34:58.778Z,78.10
2017-11-11T09:37:26.415Z,78.10
2017-11-11T09:39:54.003Z,78.10
2017-11-11T09:42:21.594Z,78.20
2017-11-11T09:44:49.984Z,78.50
2017-11-11T09:47:18.350Z,78.50
2017-11-11T09:49:46.733Z,79.40
2017-11-11T09:52:15.105Z,78.90
2017-11-11T09:54:42.734Z,78.80
2017-11-11T09:57:10.341Z,78.70
2017-11-11T09:59:38.744Z,78.60
2017-11-11T10:02:06.366Z,78.50
2017-11-11T10:04:33.966Z,78.70
2017-11-11T10:07:01.558Z,78.60
2017-11-11T10:09:29.190Z,78.90
2017-11-11T10:11:56.778Z,79.00
2017-11-11T10:14:24.403Z,79.00
2017-11-11T10:16:51.994Z,78.90
2017-11-11T10:19:19.593Z,78.90
2017-11-11T10:21:48.116Z,78.90
2017-11-11T10:24:15.703Z,78.80
2017-11-11T10:26:43.286Z,79.00
2017-11-11T10:29:10.922Z,78.60
2017-11-11T10:31:38.510Z,79.00
2017-11-11T10:34:06.098Z,78.80
2017-11-11T10:36:33.737Z,78.90
2017-11-11T10:39:02.103Z,78.80
2017-11-11T10:41:29.733Z,78.60
2017-11-11T10:43:57.318Z,78.60
2017-11-11T10:46:25.677Z,78.60
2017-11-11T10:48:53.302Z,78.50
2017-11-11T10:51:20.900Z,78.50
2017-11-11T10:53:48.495Z,78.60
2017-11-11T10:56:16.889Z,78.50
2017-11-11T10:58:45.246Z,78.50
2017-11-11T11:01:12.833Z,78.40
2017-11-11T11:03:40.457Z,78.60
2017-11-11T11:06:08.051Z,78.50
2017-11-11T11:08:36.421Z,78.60
2017-11-11T11:11:04.053Z,78.50
2017-11-11T11:13:31.639Z,78.30
2017-11-11T11:16:00.017Z,78.20
2017-11-11T11:18:28.374Z,77.90
2017-11-11T11:20:56.003Z,77.90
2017-11-11T11:23:23.772Z,78.00
2017-11-11T11:25:51.411Z,77.90
2017-11-11T11:28:19.002Z,77.50
2017-11-11T11:30:46.597Z,77.70
2017-11-11T11:33:14.218Z,77.30
2017-11-11T11:35:41.813Z,77.60
2017-11-11T11:38:09.440Z,77.40
2017-11-11T11:40:37.043Z,77.30
2017-11-11T11:43:05.427Z,77.00
2017-11-11T11:45:33.832Z,77.30
2017-11-11T11:48:01.454Z,77.30
2017-11-11T11:50:29.047Z,77.20
2017-11-11T11:52:56.666Z,76.70
2017-11-11T11:55:24.262Z,77.10
2017-11-11T11:57:51.874Z,77.30
2017-11-11T12:00:19.470Z,76.50
2017-11-11T12:02:47.856Z,76.90
2017-11-11T12:05:16.213Z,76.80
2017-11-11T12:07:43.861Z,77.60
2017-11-11T12:10:11.472Z,77.20
2017-11-11T12:12:39.069Z,76.90
2017-11-11T12:15:06.702Z,76.90
2017-11-11T12:17:34.302Z,77.00
2017-11-11T12:20:02.662Z,76.90
2017-11-11T12:22:30.297Z,76.80
2017-11-11T12:24:57.893Z,76.80
2017-11-11T12:27:25.485Z,76.50
2017-11-11T12:29:53.877Z,76.10
2017-11-11T12:32:22.245Z,76.30
2017-11-11T12:34:50.612Z,76.00
2017-11-11T12:37:19.638Z,76.10
2017-11-11T12:39:47.258Z,76.10
2017-11-11T12:42:14.850Z,76.00
2017-11-11T12:44:42.474Z,75.70
2017-11-11T12:47:10.116Z,76.00
2017-11-11T12:49:37.748Z,75.60
2017-11-11T12:52:05.348Z,75.40
2017-11-11T12:54:32.974Z,75.00
2017-11-11T12:57:00.613Z,75.20
2017-11-11T12:59:28.994Z,74.70
2017-11-11T13:01:57.403Z,74.30
2017-11-11T13:04:25.006Z,74.30
2017-11-11T13:06:52.602Z,74.20
2017-11-11T13:09:20.235Z,74.00
2017-11-11T13:11:48.594Z,74.20
2017-11-11T13:14:16.212Z,73.40
2017-11-11T13:16:43.806Z,73.10
2017-11-11T13:19:11.438Z,72.90
2017-11-11T13:21:39.030Z,72.90
2017-11-11T13:24:06.625Z,73.80
2017-11-11T13:26:35.023Z,73.30
2017-11-11T13:29:02.648Z,73.30
2017-11-11T13:31:30.286Z,73.20
2017-11-11T13:33:57.935Z,73.40
2017-11-11T13:36:25.541Z,73.70
2017-11-11T13:38:53.137Z,73.60
2017-11-11T13:41:20.762Z,72.70
2017-11-11T13:43:49.224Z,72.80
2017-11-11T13:46:17.614Z,73.10
2017-11-11T13:48:45.286Z,73.00
2017-11-11T13:51:13.643Z,73.40
2017-11-11T13:53:41.242Z,73.20
2017-11-11T13:56:08.871Z,73.60
2017-11-11T13:58:36.467Z,73.00
2017-11-11T14:01:04.066Z,72.30
2017-11-11T14:03:31.697Z,72.60
2017-11-11T14:05:59.381Z,72.70
2017-11-11T14:08:26.971Z,72.80
2017-11-11T14:10:54.594Z,72.60
2017-11-11T14:13:22.190Z,72.70
2017-11-11T14:15:49.815Z,72.30
2017-11-11T14:18:17.445Z,72.40
2017-11-11T14:20:45.808Z,72.00
2017-11-11T14:23:13.433Z,71.90
2017-11-11T14:25:41.034Z,72.70
2017-11-11T14:28:09.432Z,72.50
2017-11-11T14:30:37.030Z,72.50
2017-11-11T14:33:04.628Z,72.40
2017-11-11T14:35:33.022Z,72.30
2017-11-11T14:38:01.378Z,72.60
2017-11-11T14:40:28.998Z,72.40
2017-11-11T14:42:56.590Z,72.70
2017-11-11T14:45:24.233Z,72.80
2017-11-11T14:47:51.825Z,71.80
2017-11-11T14:50:19.671Z,71.30
2017-11-11T14:52:47.536Z,72.70
2017-11-11T14:55:15.283Z,71.90
2017-11-11T14:57:43.163Z,71.50
2017-11-11T15:00:10.922Z,71.40
2017-11-11T15:02:38.798Z,70.70
2017-11-11T15:05:06.434Z,71.10
2017-11-11T15:07:34.235Z,70.90
2017-11-11T15:10:01.900Z,70.90
2017-11-11T15:12:29.659Z,71.10
2017-11-11T15:14:57.503Z,71.40
2017-11-11T15:17:25.278Z,71.00
2017-11-11T15:19:53.036Z,71.10
2017-11-11T15:22:20.860Z,71.10
2017-11-11T15:24:48.595Z,70.90
2017-11-11T15:27:17.149Z,70.30
2017-11-11T15:29:44.883Z,70.30
2017-11-11T15:32:12.687Z,70.30
2017-11-11T15:34:40.439Z,70.70
2017-11-11T15:37:08.114Z,71.30
2017-11-11T15:39:37.282Z,70.60
2017-11-11T15:42:04.983Z,70.50
2017-11-11T15:44:32.729Z,70.50
2017-11-11T15:47:00.487Z,70.70
2017-11-11T15:49:28.155Z,70.60
2017-11-11T15:51:55.938Z,70.90
2017-11-11T15:54:23.579Z,71.80
2017-11-11T15:56:51.334Z,71.30
2017-11-11T15:59:19.103Z,71.40
2017-11-11T16:01:46.797Z,70.70
2017-11-11T16:04:15.262Z,70.40
2017-11-11T16:06:43.007Z,70.40
2017-11-11T16:09:10.797Z,70.70
2017-11-11T16:11:38.437Z,71.00
2017-11-11T16:14:06.210Z,71.00
2017-11-11T16:16:33.851Z,70.80
2017-11-11T16:19:01.635Z,70.40
2017-11-11T16:21:29.335Z,70.50
2017-11-11T16:23:57.779Z,70.70
2017-11-11T16:26:25.479Z,70.50
2017-11-11T16:28:54.013Z,70.10
2017-11-11T16:31:21.809Z,70.10
2017-11-11T16:33:51.063Z,70.60
2017-11-11T16:36:19.058Z,70.60
2017-11-11T16:38:46.724Z,70.70
2017-11-11T16:41:14.420Z,70.70
2017-11-11T16:43:42.954Z,70.80
2017-11-11T16:46:10.659Z,70.80
2017-11-11T16:48:39.216Z,70.60
2017-11-11T16:51:06.813Z,70.60
2017-11-11T16:53:35.298Z,70.70
2017-11-11T16:56:03.030Z,70.70
2017-11-11T16:58:30.656Z,70.40
2017-11-11T17:00:58.536Z,70.50
2017-11-11T17:03:26.299Z,70.50
2017-11-11T17:05:53.930Z,70.90
2017-11-11T17:08:21.666Z,71.10
2017-11-11T17:10:50.201Z,71.30
2017-11-11T17:13:17.821Z,72.30
2017-11-11T17:15:45.460Z,71.30
2017-11-11T17:18:14.209Z,71.30
2017-11-11T17:20:42.627Z,71.10
2017-11-11T17:23:11.149Z,71.10
2017-11-11T17:25:38.785Z,72.20
2017-11-11T17:28:06.465Z,71.00
2017-11-11T17:30:34.169Z,71.10
2017-11-11T17:33:01.806Z,72.60
2017-11-11T17:35:29.410Z,72.70
2017-11-11T17:37:57.020Z,71.70
2017-11-11T17:40:24.651Z,71.50
2017-11-11T17:42:53.014Z,71.50
2017-11-11T17:45:20.617Z,72.60
2017-11-11T17:47:48.313Z,71.00
2017-11-11T17:50:15.939Z,72.30
2017-11-11T17:52:43.539Z,72.50
2017-11-11T17:55:11.183Z,72.30
2017-11-11T17:57:38.849Z,72.30
2017-11-11T18:00:06.458Z,72.10
2017-11-11T18:02:34.842Z,72.20
2017-11-11T18:05:03.199Z,72.20
2017-11-11T18:07:32.298Z,72.10
2017-11-11T18:10:01.663Z,72.10
2017-11-11T18:12:29.572Z,72.00
2017-11-11T18:14:58.088Z,72.60
2017-11-11T18:17:26.002Z,72.50
2017-11-11T18:19:53.859Z,72.50
2017-11-11T18:22:21.728Z,72.60
2017-11-11T18:24:49.705Z,72.50
2017-11-11T18:27:17.566Z,72.30
2017-11-11T18:29:45.430Z,73.60
2017-11-11T18:32:23.237Z,72.80
2017-11-11T18:34:52.546Z,72.60
2017-11-11T18:37:22.410Z,72.40
2017-11-11T18:39:50.424Z,72.50
2017-11-11T18:42:18.289Z,71.80
2017-11-11T18:44:46.153Z,72.00
2017-11-11T18:47:14.422Z,72.10
2017-11-11T18:49:43.118Z,72.30
2017-11-11T18:52:10.989Z,72.20
2017-11-11T18:54:39.646Z,72.50
2017-11-11T18:57:08.041Z,72.70
2017-11-11T18:59:36.872Z,72.60
2017-11-11T19:02:04.819Z,72.50
2017-11-11T19:04:32.794Z,72.70
2017-11-11T19:07:01.462Z,73.20
2017-11-11T19:09:29.249Z,72.20
2017-11-11T19:11:57.908Z,72.50
2017-11-11T19:14:25.891Z,72.50
2017-11-11T19:16:53.742Z,71.90
2017-11-11T19:19:21.610Z,71.70
2017-11-11T19:21:49.564Z,72.20
2017-11-11T19:24:19.824Z,72.50
2017-11-11T19:26:47.775Z,72.40
2017-11-11T19:29:15.632Z,72.60
2017-11-11T19:31:43.503Z,72.30
2017-11-11T19:34:11.364Z,72.60
2017-11-11T19:36:39.258Z,72.10
2017-11-11T19:39:07.213Z,72.20
2017-11-11T19:41:34.976Z,71.90
2017-11-11T19:44:02.945Z,71.50
2017-11-11T19:46:30.991Z,71.60
2017-11-11T19:48:58.895Z,71.90
2017-11-11T19:51:27.171Z,71.70
2017-11-11T19:53:55.017Z,72.00
2017-11-11T19:56:22.897Z,72.20
2017-11-11T19:58:50.862Z,72.20
2017-11-11T20:01:18.707Z,71.70
2017-11-11T20:03:46.594Z,71.60
2017-11-11T20:06:14.450Z,71.60
2017-11-11T20:08:42.748Z,71.70
2017-11-11T20:11:11.316Z,71.30
2017-11-11T20:13:41.223Z,71.30
2017-11-11T20:16:08.942Z,71.40
2017-11-11T20:18:36.542Z,71.50
2017-11-11T20:21:04.235Z,71.80
2017-11-11T20:23:33.338Z,71.90
2017-11-11T20:26:01.735Z,71.60
2017-11-11T20:28:30.618Z,71.20
2017-11-11T20:30:58.979Z,71.20
2017-11-11T20:33:28.078Z,71.20
2017-11-11T20:35:55.707Z,71.20
2017-11-11T20:38:23.297Z,70.80
2017-11-11T20:40:50.883Z,71.60
2017-11-11T20:43:19.337Z,71.30
2017-11-11T20:45:46.945Z,71.30
2017-11-11T20:48:14.566Z,71.40
2017-11-11T20:50:43.535Z,71.30
2017-11-11T20:53:11.502Z,71.30
2017-11-11T20:55:39.472Z,71.30
2017-11-11T20:58:14.537Z,71.60
2017-11-11T21:00:43.297Z,71.70
2017-11-11T21:03:11.162Z,71.70
2017-11-11T21:05:39.795Z,71.60
2017-11-11T21:08:07.709Z,71.90
2017-11-11T21:10:35.578Z,71.80
2017-11-11T21:13:06.173Z,71.60
2017-11-11T21:15:36.772Z,71.80
2017-11-11T21:18:06.624Z,71.80
2017-11-11T21:20:36.550Z,71.70
2017-11-11T21:23:05.322Z,71.80
2017-11-11T21:25:33.763Z,72.10
2017-11-11T21:28:01.703Z,72.10
2017-11-11T21:33:29.134Z,72.40
2017-11-11T21:35:57.024Z,72.30
2017-11-11T21:38:25.025Z,72.00
2017-11-11T21:40:52.618Z,72.00
2017-11-11T21:43:21.043Z,72.20
2017-11-11T21:45:50.456Z,72.00
2017-11-11T21:48:18.415Z,72.30
2017-11-11T21:50:46.018Z,72.00
2017-11-11T21:53:14.971Z,71.90
2017-11-11T21:55:42.732Z,71.80
2017-11-11T21:58:10.399Z,72.10
2017-11-11T22:00:38.058Z,71.80
2017-11-11T22:03:05.699Z,72.30
2017-11-11T22:05:33.281Z,72.10
2017-11-11T22:08:00.901Z,72.00
2017-11-11T22:10:28.485Z,71.90
2017-11-11T22:12:56.074Z,71.80
2017-11-11T22:15:24.280Z,72.00
2017-11-11T22:17:52.638Z,72.20
2017-11-11T22:20:20.997Z,72.50
2017-11-11T22:22:48.645Z,72.50
2017-11-11T22:25:16.238Z,72.00
2017-11-11T22:27:43.829Z,72.00
2017-11-11T22:30:11.458Z,71.90
2017-11-11T22:32:39.048Z,72.10
2017-11-11T22:35:07.421Z,72.30
2017-11-11T22:37:35.818Z,72.60
2017-11-11T22:40:03.423Z,72.40
2017-11-11T22:42:31.028Z,72.20
2017-11-11T22:44:59.417Z,72.30
2017-11-11T22:47:27.012Z,72.20
2017-11-11T22:49:54.649Z,71.70
2017-11-11T22:52:22.273Z,72.30
2017-11-11T22:54:49.873Z,72.20
2017-11-11T22:57:17.462Z,71.60
2017-11-11T22:59:46.689Z,72.40
2017-11-11T23:02:15.166Z,72.50
2017-11-11T23:04:42.768Z,72.30
2017-11-11T23:07:10.394Z,72.10
2017-11-11T23:09:37.990Z,71.90
2017-11-11T23:12:05.607Z,73.00
2017-11-11T23:14:33.238Z,72.00
2017-11-11T23:17:00.820Z,72.00
2017-11-11T23:19:28.422Z,72.30
2017-11-11T23:21:56.063Z,72.20
2017-11-11T23:24:24.420Z,71.90
2017-11-11T23:26:52.016Z,71.90
2017-11-11T23:29:20.414Z,72.20
2017-11-11T23:31:48.021Z,72.20
2017-11-11T23:34:15.619Z,72.40
2017-11-11T23:36:44.037Z,72.50
2017-11-11T23:39:11.645Z,72.50
2017-11-11T23:41:40.004Z,72.00
2017-11-11T23:44:07.643Z,71.90
2017-11-11T23:46:35.237Z,72.30
2017-11-11T23:49:02.841Z,71.70
2017-11-11T23:51:30.497Z,72.30
2017-11-11T23:53:58.086Z,72.30
2017-11-11T23:56:25.694Z,72.70
2017-11-11T23:58:54.105Z,72.10
